Austin Bergstrom International Airport Austin US
ICAO: KAUS
IATA: AUS
Category: Large
Scheduled Services: Yes

Elevation: 542 ft
TransAlt. 18000 ft.

Airport Communications:
APP/DEP:118.8
ASOS:128.875
ATIS:124.4
CLNC DEL:125.5
GND:121.7
ARNG OPS:36.8
SAN ANGELO RDO:122.55
TWR:121
UNICOM:122.95

KAUS Zoom In..

If you have problems with the map follow the link
https://www.worldairports.se/pages/airport.php?
ICAO=KAUS

Runways:

(A) RW 17L length 9000 ft width 150 ft
ILS 110.50 / hdg 173

(B) RW 17R length 12248 ft width 150 ft
ILS 110.95 / hdg 173

(C) RW 35L length 12248 ft width 150 ft
ILS 110.95 / hdg 353

(D) RW 35R length 9000 ft width 150 ft
ILS 110.50 / hdg 353

Location; KAUS
Day. 14 / Time. 15.53 Zulu
* Altimeter: 29.89
* Temperature: 13° c. 55.4°f.
* Wind from: 050° Speed 04 kn.
Dewpoint: 07° c.
Visibility: 10 Statute Miles.
Clouds: Few 25000 ft.

KAUS 141553Z 05004KT 10SM FEW250 13/07 A2989 RMK AO2 SLP124 T01330072


Wind From 050°
Speed 04 kn.

 
 
jpsmedia worldairports.se 2019   terms of use